createdAt,value
2018-07-12T00:01:11.595Z,101502.99
2018-07-12T00:03:38.664Z,101503.44
2018-07-12T00:06:05.736Z,101500.52
2018-07-12T00:08:32.816Z,101493.77
2018-07-12T00:10:59.895Z,101488.02
2018-07-12T00:13:26.976Z,101485.09
2018-07-12T00:15:54.052Z,101481.15
2018-07-12T00:18:21.120Z,101483.33
2018-07-12T00:20:48.195Z,101483.33
2018-07-12T00:23:15.272Z,101482.38
2018-07-12T00:25:42.373Z,101482.62
2018-07-12T00:28:09.448Z,101480.85
2018-07-12T00:30:36.528Z,101478.88
2018-07-12T00:33:03.604Z,101477.11
2018-07-12T00:35:30.685Z,101479.33
2018-07-12T00:37:57.763Z,101471.15
2018-07-12T00:40:24.855Z,101474.55
2018-07-12T00:42:51.924Z,101470.94
2018-07-12T00:45:18.996Z,101474.31
2018-07-12T00:47:46.064Z,101467.33
2018-07-12T00:50:13.149Z,101457.34
2018-07-12T00:52:40.222Z,101457.55
2018-07-12T00:55:07.307Z,101453.14
2018-07-12T00:57:34.378Z,101460.13
2018-07-12T01:00:01.466Z,101457.09
2018-07-12T01:02:28.548Z,101459.69
2018-07-12T01:04:55.623Z,101456.07
2018-07-12T01:07:22.696Z,101458.87
2018-07-12T01:09:49.788Z,101463.06
2018-07-12T01:12:16.851Z,101460.27
2018-07-12T01:14:43.935Z,101457.02
2018-07-12T01:17:11.005Z,101456.58
2018-07-12T01:19:38.071Z,101459.73
2018-07-12T01:22:05.160Z,101467.75
2018-07-12T01:24:32.231Z,101459.58
2018-07-12T01:26:59.311Z,101464.59
2018-07-12T01:29:26.389Z,101463.56
2018-07-12T01:31:53.480Z,101464.37
2018-07-12T01:34:20.558Z,101466.73
2018-07-12T01:36:47.628Z,101470.10
2018-07-12T01:39:14.716Z,101475.56
2018-07-12T01:41:41.797Z,101470.75
2018-07-12T01:44:08.865Z,101471.20
2018-07-12T01:46:35.936Z,101468.41
2018-07-12T01:49:03.028Z,101468.07
2018-07-12T01:51:30.116Z,101462.23
2018-07-12T01:53:57.197Z,101463.27
2018-07-12T01:56:24.280Z,101464.01
2018-07-12T01:58:51.339Z,101464.96
2018-07-12T02:01:18.419Z,101463.94
2018-07-12T02:03:45.491Z,101461.72
2018-07-12T02:06:12.567Z,101462.88
2018-07-12T02:08:39.643Z,101451.70
2018-07-12T02:11:06.720Z,101454.28
2018-07-12T02:13:33.800Z,101456.05
2018-07-12T02:16:00.883Z,101453.59
2018-07-12T02:18:27.956Z,101457.95
2018-07-12T02:20:55.028Z,101452.25
2018-07-12T02:23:22.097Z,101454.16
2018-07-12T02:25:49.175Z,101453.50
2018-07-12T02:28:16.260Z,101453.42
2018-07-12T02:30:43.352Z,101450.52
2018-07-12T02:33:10.464Z,101448.83
2018-07-12T02:35:37.553Z,101446.13
2018-07-12T02:38:04.609Z,101447.66
2018-07-12T02:40:31.690Z,101445.81
2018-07-12T02:42:58.761Z,101455.27
2018-07-12T02:45:25.852Z,101455.42
2018-07-12T02:47:52.917Z,101455.31
2018-07-12T02:50:19.984Z,101455.80
2018-07-12T02:52:47.061Z,101447.92
2018-07-12T02:55:14.132Z,101453.05
2018-07-12T02:57:41.230Z,101454.00
2018-07-12T03:00:08.301Z,101452.52
2018-07-12T03:02:35.389Z,101454.03
2018-07-12T03:05:02.461Z,101457.56
2018-07-12T03:07:29.553Z,101458.50
2018-07-12T03:09:56.616Z,101452.23
2018-07-12T03:12:23.688Z,101452.38
2018-07-12T03:14:50.755Z,101452.27
2018-07-12T03:17:17.831Z,101456.94
2018-07-12T03:19:44.902Z,101452.09
2018-07-12T03:22:11.976Z,101453.97
2018-07-12T03:24:39.046Z,101455.40
2018-07-12T03:27:06.120Z,101447.15
2018-07-12T03:29:33.184Z,101446.13
2018-07-12T03:32:00.292Z,101436.11
2018-07-12T03:34:27.356Z,101440.30
2018-07-12T03:36:54.444Z,101439.27
2018-07-12T03:39:21.509Z,101442.06
2018-07-12T03:41:48.582Z,101440.66
2018-07-12T03:44:15.663Z,101446.61
2018-07-12T03:46:42.735Z,101447.76
2018-07-12T03:49:09.808Z,101447.66
2018-07-12T03:51:36.892Z,101456.16
2018-07-12T03:54:03.953Z,101454.42
2018-07-12T03:56:31.027Z,101457.58
2018-07-12T03:58:58.104Z,101455.97
2018-07-12T04:01:25.182Z,101454.78
2018-07-12T04:03:52.253Z,101452.00
2018-07-12T04:06:19.329Z,101460.82
2018-07-12T04:08:46.400Z,101461.28
2018-07-12T04:11:13.478Z,101458.94
2018-07-12T04:13:40.541Z,101466.83
2018-07-12T04:16:07.612Z,101464.37
2018-07-12T04:18:34.711Z,101460.52
2018-07-12T04:21:01.816Z,101464.68
2018-07-12T04:23:28.901Z,101460.00
2018-07-12T04:25:55.960Z,101450.45
2018-07-12T04:28:23.032Z,101459.97
2018-07-12T04:30:50.100Z,101454.03
2018-07-12T04:33:17.190Z,101454.56
2018-07-12T04:35:44.260Z,101452.47
2018-07-12T04:38:11.333Z,101448.61
2018-07-12T04:40:38.401Z,101447.30
2018-07-12T04:43:05.480Z,101449.36
2018-07-12T04:45:32.564Z,101446.68
2018-07-12T04:47:59.665Z,101448.61
2018-07-12T04:50:26.728Z,101450.33
2018-07-12T04:52:53.808Z,101449.47
2018-07-12T04:55:20.896Z,101447.78
2018-07-12T04:57:47.976Z,101452.75
2018-07-12T05:00:15.068Z,101455.52
2018-07-12T05:02:42.146Z,101463.03
2018-07-12T05:05:09.232Z,101470.47
2018-07-12T05:07:36.313Z,101463.93
2018-07-12T05:10:03.385Z,101466.67
2018-07-12T05:12:30.461Z,101466.54
2018-07-12T05:14:57.527Z,101465.67
2018-07-12T05:17:24.604Z,101464.01
2018-07-12T05:19:51.676Z,101470.94
2018-07-12T05:22:18.764Z,101478.89
2018-07-12T05:24:45.840Z,101479.20
2018-07-12T05:27:12.988Z,101485.69
2018-07-12T05:29:40.095Z,101483.84
2018-07-12T05:32:07.184Z,101492.16
2018-07-12T05:34:34.254Z,101497.59
2018-07-12T05:37:02.644Z,101491.73
2018-07-12T05:39:30.721Z,101493.52
2018-07-12T05:41:58.772Z,101499.05
2018-07-12T05:44:26.818Z,101502.52
2018-07-12T05:46:54.909Z,101503.99
2018-07-12T05:49:22.960Z,101500.45
2018-07-12T05:51:51.036Z,101511.95
2018-07-12T05:54:19.848Z,101512.46
2018-07-12T05:56:48.116Z,101510.24
2018-07-12T05:59:16.559Z,101519.28
2018-07-12T06:01:56.040Z,101516.66
2018-07-12T06:04:24.102Z,101518.19
2018-07-12T06:06:52.148Z,101515.11
2018-07-12T06:09:20.223Z,101511.28
2018-07-12T06:11:48.284Z,101517.16
2018-07-12T06:14:16.339Z,101519.68
2018-07-12T06:16:44.392Z,101513.84
2018-07-12T06:19:12.451Z,101520.56
2018-07-12T06:21:40.512Z,101532.91
2018-07-12T06:24:08.620Z,101536.77
2018-07-12T06:26:36.657Z,101526.22
2018-07-12T06:29:04.727Z,101526.66
2018-07-12T06:31:32.780Z,101532.55
2018-07-12T06:34:00.852Z,101528.86
2018-07-12T06:36:28.899Z,101529.30
2018-07-12T06:38:56.957Z,101525.25
2018-07-12T06:41:25.035Z,101530.45
2018-07-12T06:43:53.092Z,101530.59
2018-07-12T06:46:21.161Z,101536.14
2018-07-12T06:48:49.236Z,101534.14
2018-07-12T06:51:17.328Z,101539.02
2018-07-12T06:53:45.417Z,101534.11
2018-07-12T06:56:13.552Z,101539.62
2018-07-12T06:58:41.642Z,101542.98
2018-07-12T07:01:09.713Z,101540.49
2018-07-12T07:03:37.776Z,101537.73
2018-07-12T07:06:05.852Z,101535.52
2018-07-12T07:08:33.971Z,101536.48
2018-07-12T07:11:01.974Z,101536.86
2018-07-12T07:13:30.048Z,101532.68
2018-07-12T07:15:58.107Z,101531.83
2018-07-12T07:18:26.176Z,101533.39
2018-07-12T07:20:54.246Z,101535.67
2018-07-12T07:23:22.312Z,101541.73
2018-07-12T07:25:50.387Z,101542.89
2018-07-12T07:28:18.438Z,101553.11
2018-07-12T07:30:46.508Z,101547.80
2018-07-12T07:33:14.560Z,101548.28
2018-07-12T07:35:42.681Z,101544.00
2018-07-12T07:38:10.693Z,101540.91
2018-07-12T07:40:38.751Z,101544.07
2018-07-12T07:43:06.871Z,101536.38
2018-07-12T07:45:34.869Z,101539.11
2018-07-12T07:48:02.917Z,101541.80
2018-07-12T07:50:30.976Z,101542.05
2018-07-12T07:52:59.074Z,101539.88
2018-07-12T07:55:27.133Z,101533.23
2018-07-12T07:57:55.213Z,101533.84
2018-07-12T08:00:23.347Z,101538.48
2018-07-12T08:02:51.411Z,101540.91
2018-07-12T08:05:19.480Z,101532.25
2018-07-12T08:07:47.548Z,101534.23
2018-07-12T08:10:15.646Z,101532.78
2018-07-12T08:12:44.145Z,101537.14
2018-07-12T08:15:12.228Z,101530.58
2018-07-12T08:17:40.300Z,101529.42
2018-07-12T08:20:08.391Z,101533.55
2018-07-12T08:22:36.440Z,101531.52
2018-07-12T08:25:04.908Z,101531.49
2018-07-12T08:27:33.009Z,101526.05
2018-07-12T08:30:01.130Z,101525.47
2018-07-12T08:32:29.131Z,101520.39
2018-07-12T08:34:57.181Z,101515.13
2018-07-12T08:37:25.232Z,101513.36
2018-07-12T08:39:53.304Z,101506.47
2018-07-12T08:42:21.410Z,101515.84
2018-07-12T08:44:49.404Z,101513.35
2018-07-12T08:47:17.453Z,101511.66
2018-07-12T08:49:45.515Z,101510.33
2018-07-12T08:52:13.564Z,101510.45
2018-07-12T08:54:41.677Z,101507.14
2018-07-12T08:57:09.685Z,101503.58
2018-07-12T08:59:37.740Z,101508.60
2018-07-12T09:02:05.812Z,101506.60
2018-07-12T09:04:33.859Z,101502.95
2018-07-12T09:07:01.908Z,101499.23
2018-07-12T09:09:29.988Z,101491.12
2018-07-12T09:11:58.032Z,101491.59
2018-07-12T09:14:26.076Z,101493.86
2018-07-12T09:16:54.140Z,101493.58
2018-07-12T09:19:22.172Z,101489.88
2018-07-12T09:21:50.313Z,101493.87
2018-07-12T09:24:18.292Z,101489.69
2018-07-12T09:26:46.656Z,101491.78
2018-07-12T09:29:14.744Z,101493.08
2018-07-12T09:31:42.768Z,101505.64
2018-07-12T09:34:10.826Z,101501.87
2018-07-12T09:36:38.884Z,101503.55
2018-07-12T09:39:06.932Z,101497.86
2018-07-12T09:41:34.992Z,101498.63
2018-07-12T09:44:03.044Z,101494.06
2018-07-12T09:46:31.100Z,101494.78
2018-07-12T09:48:59.229Z,101507.45
2018-07-12T09:51:27.225Z,101499.81
2018-07-12T09:53:55.284Z,101502.55
2018-07-12T09:56:29.183Z,101500.87
2018-07-12T09:58:57.172Z,101504.92
2018-07-12T10:01:30.630Z,101502.04
2018-07-12T10:03:58.731Z,101505.02
2018-07-12T10:06:30.968Z,101506.97
2018-07-12T10:09:04.218Z,101506.78
2018-07-12T10:11:37.792Z,101502.28
2018-07-12T10:14:11.267Z,101511.53
2018-07-12T10:16:44.324Z,101502.50
2018-07-12T10:19:12.370Z,101507.27
2018-07-12T10:21:40.439Z,101503.06
2018-07-12T10:24:08.488Z,101502.03
2018-07-12T10:26:36.563Z,101500.52
2018-07-12T10:29:04.628Z,101496.74
2018-07-12T10:31:32.696Z,101492.68
2018-07-12T10:34:00.736Z,101487.27
2018-07-12T10:36:28.820Z,101492.38
2018-07-12T10:38:56.886Z,101497.00
2018-07-12T10:41:24.988Z,101497.31
2018-07-12T10:43:53.048Z,101491.88
2018-07-12T10:46:21.116Z,101490.77
2018-07-12T10:48:49.191Z,101490.93
2018-07-12T10:51:17.264Z,101480.72
2018-07-12T10:53:45.339Z,101481.36
2018-07-12T10:56:13.423Z,101478.77
2018-07-12T10:58:41.480Z,101478.70
2018-07-12T11:01:09.547Z,101474.50
2018-07-12T11:03:37.599Z,101477.31
2018-07-12T11:06:05.839Z,101480.93
2018-07-12T11:08:33.893Z,101475.70
2018-07-12T11:11:01.956Z,101472.97
2018-07-12T11:13:41.356Z,101472.45
2018-07-12T11:16:09.404Z,101474.52
2018-07-12T11:18:37.442Z,101473.48
2018-07-12T11:21:05.552Z,101474.20
2018-07-12T11:23:33.531Z,101470.42
2018-07-12T11:26:01.591Z,101480.37
2018-07-12T11:28:29.648Z,101479.77
2018-07-12T11:30:57.695Z,101478.86
2018-07-12T11:33:44.583Z,101484.23
2018-07-12T11:36:12.716Z,101482.59
2018-07-12T11:38:42.142Z,101483.70
2018-07-12T11:41:10.444Z,101484.55
2018-07-12T11:43:38.506Z,101494.20
2018-07-12T11:46:07.740Z,101495.52
2018-07-12T11:48:36.938Z,101494.42
2018-07-12T11:51:05.032Z,101492.66
2018-07-12T11:53:33.132Z,101492.99
2018-07-12T11:56:01.212Z,101490.66
2018-07-12T11:58:29.232Z,101489.03
2018-07-12T12:00:58.135Z,101494.05
2018-07-12T12:03:26.840Z,101485.05
2018-07-12T12:05:54.965Z,101481.02
2018-07-12T12:08:23.389Z,101482.07
2018-07-12T12:10:51.452Z,101479.84
2018-07-12T12:13:19.499Z,101486.12
2018-07-12T12:15:47.551Z,101484.25
2018-07-12T12:18:15.613Z,101485.36
2018-07-12T12:20:43.664Z,101479.97
2018-07-12T12:23:11.716Z,101480.84
2018-07-12T12:25:39.752Z,101474.56
2018-07-12T12:28:07.802Z,101481.22
2018-07-12T12:30:35.860Z,101479.94
2018-07-12T12:33:03.905Z,101484.42
2018-07-12T12:35:32.070Z,101476.09
2018-07-12T12:38:00.120Z,101472.00
2018-07-12T12:40:28.161Z,101471.89
2018-07-12T12:42:56.213Z,101474.66
2018-07-12T12:45:24.264Z,101473.84
2018-07-12T12:47:52.316Z,101471.00
2018-07-12T12:50:20.360Z,101466.20
2018-07-12T12:52:48.420Z,101462.62
2018-07-12T12:55:16.474Z,101461.69
2018-07-12T12:57:44.544Z,101465.64
2018-07-12T13:00:12.639Z,101467.98
2018-07-12T13:02:40.701Z,101462.44
2018-07-12T13:05:08.740Z,101467.37
2018-07-12T13:07:36.823Z,101466.63
2018-07-12T13:10:05.420Z,101474.25
2018-07-12T13:12:33.488Z,101466.00
2018-07-12T13:15:01.524Z,101467.41
2018-07-12T13:17:29.573Z,101466.08
2018-07-12T13:19:57.604Z,101472.02
2018-07-12T13:22:25.694Z,101474.36
2018-07-12T13:24:53.728Z,101467.15
2018-07-12T13:27:21.810Z,101471.94
2018-07-12T13:29:49.849Z,101470.95
2018-07-12T13:32:17.890Z,101465.13
2018-07-12T13:34:45.963Z,101467.16
2018-07-12T13:37:14.004Z,101471.98
2018-07-12T13:39:42.075Z,101469.16
2018-07-12T13:42:10.117Z,101474.02
2018-07-12T13:44:38.168Z,101475.05
2018-07-12T13:47:06.240Z,101464.11
2018-07-12T13:49:34.311Z,101471.58
2018-07-12T13:52:02.398Z,101472.28
2018-07-12T13:54:30.468Z,101476.63
2018-07-12T13:56:58.529Z,101472.33
2018-07-12T13:59:26.620Z,101479.58
2018-07-12T14:01:54.672Z,101477.05
2018-07-12T14:04:22.735Z,101473.55
2018-07-12T14:06:50.796Z,101468.85
2018-07-12T14:09:18.848Z,101476.38
2018-07-12T14:11:46.886Z,101477.00
2018-07-12T14:14:14.944Z,101471.63
2018-07-12T14:16:42.992Z,101473.14
2018-07-12T14:19:11.151Z,101474.37
2018-07-12T14:21:39.132Z,101476.30
2018-07-12T14:24:07.217Z,101478.01
2018-07-12T14:26:35.276Z,101475.09
2018-07-12T14:29:03.320Z,101465.83
2018-07-12T14:31:31.377Z,101466.52
2018-07-12T14:33:59.480Z,101464.63
2018-07-12T14:36:27.520Z,101464.37
2018-07-12T14:38:55.592Z,101460.77
2018-07-12T14:41:23.696Z,101460.20
2018-07-12T14:43:51.775Z,101457.68
2018-07-12T14:46:19.827Z,101450.58
2018-07-12T14:48:47.892Z,101446.98
2018-07-12T14:51:15.940Z,101444.67
2018-07-12T14:53:44.004Z,101456.77
2018-07-12T14:56:12.052Z,101453.06
2018-07-12T14:58:40.128Z,101456.94
2018-07-12T15:01:08.169Z,101457.89
2018-07-12T15:03:36.224Z,101461.17
2018-07-12T15:06:04.253Z,101458.92
2018-07-12T15:08:32.372Z,101459.38
2018-07-12T15:11:00.446Z,101462.72
2018-07-12T15:13:28.487Z,101469.85
2018-07-12T15:15:56.528Z,101469.43
2018-07-12T15:18:24.576Z,101471.64
2018-07-12T15:20:52.620Z,101466.13
2018-07-12T15:23:20.668Z,101474.67
2018-07-12T15:25:48.773Z,101468.13
2018-07-12T15:28:16.775Z,101477.87
2018-07-12T15:30:44.828Z,101477.36
2018-07-12T15:33:12.888Z,101479.19
2018-07-12T15:35:41.022Z,101476.82
2018-07-12T15:38:09.020Z,101470.75
2018-07-12T15:40:37.072Z,101477.86
2018-07-12T15:43:05.144Z,101475.66
2018-07-12T15:45:33.187Z,101475.00
2018-07-12T15:48:01.268Z,101472.04
2018-07-12T15:50:29.304Z,101464.20
2018-07-12T15:52:57.395Z,101453.31
2018-07-12T15:55:25.436Z,101462.24
2018-07-12T15:57:53.480Z,101465.51
2018-07-12T16:00:21.544Z,101464.47
2018-07-12T16:02:49.588Z,101471.17
2018-07-12T16:05:17.672Z,101466.16
2018-07-12T16:07:45.765Z,101462.57
2018-07-12T16:10:13.781Z,101462.95
2018-07-12T16:12:41.858Z,101466.44
2018-07-12T16:15:09.908Z,101466.12
2018-07-12T16:17:38.048Z,101471.41
2018-07-12T16:20:06.377Z,101466.48
2018-07-12T16:22:34.506Z,101461.13
2018-07-12T16:25:02.469Z,101463.45
2018-07-12T16:27:30.520Z,101460.70
2018-07-12T16:29:58.702Z,101466.20
2018-07-12T16:32:26.696Z,101470.27
2018-07-12T16:34:54.776Z,101462.39
2018-07-12T16:37:22.843Z,101471.64
2018-07-12T16:39:50.907Z,101471.39
2018-07-12T16:42:18.967Z,101457.62
2018-07-12T16:44:47.024Z,101467.70
2018-07-12T16:47:15.076Z,101471.55
2018-07-12T16:49:43.136Z,101471.00
2018-07-12T16:52:11.176Z,101476.49
2018-07-12T16:54:39.294Z,101475.42
2018-07-12T16:57:07.296Z,101466.16
2018-07-12T16:59:35.364Z,101462.30
2018-07-12T17:02:03.457Z,101465.72
2018-07-12T17:04:31.496Z,101470.78
2018-07-12T17:06:59.550Z,101469.38
2018-07-12T17:09:27.619Z,101471.77
2018-07-12T17:11:55.696Z,101470.10
2018-07-12T17:14:23.748Z,101472.20
2018-07-12T17:16:51.801Z,101474.86
2018-07-12T17:19:19.840Z,101473.70
2018-07-12T17:21:47.908Z,101475.55
2018-07-12T17:24:15.944Z,101469.67
2018-07-12T17:26:43.996Z,101476.36
2018-07-12T17:29:12.060Z,101482.07
2018-07-12T17:31:40.112Z,101475.67
2018-07-12T17:34:08.145Z,101481.97
2018-07-12T17:36:36.184Z,101482.01
2018-07-12T17:39:05.576Z,101484.41
2018-07-12T17:41:33.628Z,101480.98
2018-07-12T17:44:01.664Z,101486.08
2018-07-12T17:46:29.720Z,101492.41
2018-07-12T17:48:57.760Z,101495.63
2018-07-12T17:51:25.829Z,101499.48
2018-07-12T17:53:53.876Z,101497.53
2018-07-12T17:56:21.967Z,101497.34
2018-07-12T17:58:49.972Z,101505.29
2018-07-12T18:01:18.017Z,101499.88
2018-07-12T18:03:46.052Z,101503.93
2018-07-12T18:06:14.123Z,101501.34
2018-07-12T18:08:42.172Z,101505.23
2018-07-12T18:11:10.212Z,101499.61
2018-07-12T18:13:38.271Z,101505.91
2018-07-12T18:16:06.308Z,101508.78
2018-07-12T18:18:34.384Z,101505.98
2018-07-12T18:21:02.445Z,101513.87
2018-07-12T18:23:30.512Z,101510.67
2018-07-12T18:25:58.608Z,101513.48
2018-07-12T18:28:26.687Z,101512.07
2018-07-12T18:30:54.756Z,101519.94
2018-07-12T18:33:22.800Z,101524.56
2018-07-12T18:35:50.876Z,101521.55
2018-07-12T18:38:18.924Z,101524.76
2018-07-12T18:40:46.995Z,101526.37
2018-07-12T18:43:15.111Z,101540.44
2018-07-12T18:45:43.152Z,101539.97
2018-07-12T18:48:11.208Z,101543.34
2018-07-12T18:50:39.255Z,101533.07
2018-07-12T18:53:07.301Z,101534.84
2018-07-12T18:55:35.341Z,101535.88
2018-07-12T18:58:03.404Z,101538.48
2018-07-12T19:00:31.459Z,101543.48
2018-07-12T19:02:59.552Z,101547.28
2018-07-12T19:05:27.820Z,101555.27
2018-07-12T19:07:55.894Z,101560.23
2018-07-12T19:10:23.940Z,101571.14
2018-07-12T19:12:51.996Z,101569.28
2018-07-12T19:15:20.051Z,101571.67
2018-07-12T19:17:48.089Z,101577.25
2018-07-12T19:20:16.121Z,101584.67
2018-07-12T19:22:44.189Z,101586.84
2018-07-12T19:25:12.272Z,101597.83
2018-07-12T19:27:40.345Z,101605.73
2018-07-12T19:30:08.569Z,101604.58
2018-07-12T19:32:36.628Z,101599.09
2018-07-12T19:35:04.918Z,101608.94
2018-07-12T19:37:32.756Z,101613.10
2018-07-12T19:40:00.803Z,101626.06
2018-07-12T19:42:28.859Z,101625.18
2018-07-12T19:44:56.904Z,101637.11
2018-07-12T19:47:24.936Z,101631.36
2018-07-12T19:49:52.981Z,101638.83
2018-07-12T19:52:21.060Z,101632.97
2018-07-12T19:54:49.135Z,101638.75
2018-07-12T19:57:17.196Z,101642.43
2018-07-12T19:59:45.272Z,101655.70
2018-07-12T20:02:13.307Z,101654.92
2018-07-12T20:04:41.383Z,101654.92
2018-07-12T20:07:09.446Z,101654.53
2018-07-12T20:09:37.503Z,101657.11
2018-07-12T20:12:05.544Z,101653.87
2018-07-12T20:14:33.592Z,101663.03
2018-07-12T20:17:01.653Z,101665.52
2018-07-12T20:19:29.692Z,101661.29
2018-07-12T20:21:57.752Z,101661.24
2018-07-12T20:24:25.793Z,101658.54
2018-07-12T20:26:53.840Z,101659.97
2018-07-12T20:29:21.895Z,101666.02
2018-07-12T20:31:49.955Z,101672.16
2018-07-12T20:34:18.036Z,101662.70
2018-07-12T20:36:46.069Z,101662.22
2018-07-12T20:39:14.200Z,101664.20
2018-07-12T20:41:42.245Z,101667.77
2018-07-12T20:44:10.332Z,101669.77
2018-07-12T20:46:38.368Z,101665.64
2018-07-12T20:49:06.448Z,101664.92
2018-07-12T20:51:34.512Z,101670.61
2018-07-12T20:54:02.572Z,101671.22
2018-07-12T20:56:30.608Z,101676.83
2018-07-12T20:58:58.665Z,101678.76
2018-07-12T21:01:27.563Z,101689.91
2018-07-12T21:03:55.608Z,101684.45
2018-07-12T21:06:23.640Z,101688.45
2018-07-12T21:08:51.711Z,101690.87
2018-07-12T21:11:19.756Z,101693.30
2018-07-12T21:13:47.796Z,101684.01
2018-07-12T21:16:15.835Z,101684.97
2018-07-12T21:18:43.876Z,101682.19
2018-07-12T21:21:11.920Z,101690.97
2018-07-12T21:23:39.993Z,101692.38
2018-07-12T21:26:08.018Z,101688.10
2018-07-12T21:28:36.086Z,101696.12
2018-07-12T21:31:04.136Z,101701.36
2018-07-12T21:33:32.303Z,101695.98
2018-07-12T21:36:00.261Z,101694.21
2018-07-12T21:38:28.339Z,101695.81
2018-07-12T21:40:56.380Z,101707.64
2018-07-12T21:43:24.434Z,101697.91
2018-07-12T21:45:52.474Z,101696.58
2018-07-12T21:48:20.520Z,101697.23
2018-07-12T21:50:48.569Z,101700.76
2018-07-12T21:53:16.628Z,101694.98
2018-07-12T21:55:44.957Z,101704.55
2018-07-12T21:58:13.028Z,101705.81
2018-07-12T22:00:41.088Z,101705.81
2018-07-12T22:03:09.152Z,101700.11
2018-07-12T22:05:37.192Z,101701.75
2018-07-12T22:08:14.119Z,101696.93
2018-07-12T22:10:42.999Z,101695.32
2018-07-12T22:13:11.585Z,101692.73
2018-07-12T22:15:39.619Z,101698.84
2018-07-12T22:18:07.929Z,101704.23
2018-07-12T22:20:35.980Z,101705.63
2018-07-12T22:23:04.027Z,101696.67
2018-07-12T22:25:32.453Z,101698.95
2018-07-12T22:28:00.484Z,101695.27
2018-07-12T22:30:29.399Z,101698.70
2018-07-12T22:32:58.048Z,101698.44
2018-07-12T22:35:26.113Z,101701.87
2018-07-12T22:37:54.148Z,101692.81
2018-07-12T22:40:22.196Z,101691.52
2018-07-12T22:42:50.228Z,101685.03
2018-07-12T22:45:18.338Z,101688.94
2018-07-12T22:47:46.381Z,101695.42
2018-07-12T22:50:14.424Z,101684.98
2018-07-12T22:52:42.464Z,101693.42
2018-07-12T22:55:10.508Z,101695.11
2018-07-12T22:57:38.548Z,101686.14
2018-07-12T23:00:06.860Z,101694.58
2018-07-12T23:02:34.920Z,101693.23
2018-07-12T23:05:02.987Z,101697.30
2018-07-12T23:07:31.188Z,101701.17
2018-07-12T23:09:59.295Z,101694.28
2018-07-12T23:12:27.608Z,101698.68
2018-07-12T23:14:55.683Z,101692.14
2018-07-12T23:17:23.733Z,101687.94
2018-07-12T23:19:51.856Z,101698.23
2018-07-12T23:22:20.102Z,101691.94
2018-07-12T23:24:48.238Z,101697.53
2018-07-12T23:27:16.203Z,101685.69
2018-07-12T23:29:44.391Z,101688.53
2018-07-12T23:32:12.424Z,101687.34
2018-07-12T23:34:40.511Z,101687.66
2018-07-12T23:37:08.540Z,101688.82
2018-07-12T23:39:36.604Z,101688.69
2018-07-12T23:42:04.651Z,101683.63
2018-07-12T23:44:32.719Z,101685.94
2018-07-12T23:47:00.757Z,101679.05
2018-07-12T23:49:28.819Z,101681.98
2018-07-12T23:51:56.860Z,101674.00
2018-07-12T23:54:24.921Z,101675.66
2018-07-12T23:56:52.973Z,101674.50
2018-07-12T23:59:21.123Z,101681.13
